sensor_id;sensor_type;location;lat;lon;timestamp;temperature;humidity
8892;DHT22;4482;54.332;10.118;2023-05-19T00:00:41;9.30;99.90
8892;DHT22;4482;54.332;10.118;2023-05-19T00:03:10;9.30;99.90
8892;DHT22;4482;54.332;10.118;2023-05-19T00:05:37;9.30;99.90
8892;DHT22;4482;54.332;10.118;2023-05-19T00:08:05;9.30;99.90
8892;DHT22;4482;54.332;10.118;2023-05-19T00:10:32;9.20;99.90
8892;DHT22;4482;54.332;10.118;2023-05-19T00:12:59;9.20;99.90
8892;DHT22;4482;54.332;10.118;2023-05-19T00:15:26;9.30;99.90
8892;DHT22;4482;54.332;10.118;2023-05-19T00:17:53;9.20;99.90
8892;DHT22;4482;54.332;10.118;2023-05-19T00:20:21;9.20;99.90
8892;DHT22;4482;54.332;10.118;2023-05-19T00:22:48;9.20;99.90
8892;DHT22;4482;54.332;10.118;2023-05-19T00:25:15;9.20;99.90
8892;DHT22;4482;54.332;10.118;2023-05-19T00:27:42;9.20;99.90
8892;DHT22;4482;54.332;10.118;2023-05-19T00:30:08;9.20;99.90
8892;DHT22;4482;54.332;10.118;2023-05-19T00:32:35;9.20;99.90
8892;DHT22;4482;54.332;10.118;2023-05-19T00:35:02;9.20;99.90
8892;DHT22;4482;54.332;10.118;2023-05-19T00:37:30;9.20;99.90
8892;DHT22;4482;54.332;10.118;2023-05-19T00:39:56;9.20;99.90
8892;DHT22;4482;54.332;10.118;2023-05-19T00:42:24;9.20;99.90
8892;DHT22;4482;54.332;10.118;2023-05-19T00:44:51;9.20;99.90
8892;DHT22;4482;54.332;10.118;2023-05-19T00:47:17;9.20;99.90
8892;DHT22;4482;54.332;10.118;2023-05-19T00:49:44;9.20;99.90
8892;DHT22;4482;54.332;10.118;2023-05-19T00:52:11;9.20;99.90
8892;DHT22;4482;54.332;10.118;2023-05-19T00:54:39;9.10;99.90
8892;DHT22;4482;54.332;10.118;2023-05-19T00:57:05;9.10;99.90
8892;DHT22;4482;54.332;10.118;2023-05-19T00:59:32;9.10;99.90
8892;DHT22;4482;54.332;10.118;2023-05-19T01:01:59;9.10;99.90
8892;DHT22;4482;54.332;10.118;2023-05-19T01:04:27;9.10;99.90
8892;DHT22;4482;54.332;10.118;2023-05-19T01:06:54;9.00;99.90
8892;DHT22;4482;54.332;10.118;2023-05-19T01:09:20;9.00;99.90
8892;DHT22;4482;54.332;10.118;2023-05-19T01:11:49;9.00;99.90
8892;DHT22;4482;54.332;10.118;2023-05-19T01:14:15;9.00;99.90
8892;DHT22;4482;54.332;10.118;2023-05-19T01:16:45;9.00;99.90
8892;DHT22;4482;54.332;10.118;2023-05-19T01:19:13;9.00;99.90
8892;DHT22;4482;54.332;10.118;2023-05-19T01:22:01;8.90;99.90
8892;DHT22;4482;54.332;10.118;2023-05-19T01:24:35;8.80;99.90
8892;DHT22;4482;54.332;10.118;2023-05-19T01:27:11;8.80;99.90
8892;DHT22;4482;54.332;10.118;2023-05-19T01:29:41;8.80;99.90
8892;DHT22;4482;54.332;10.118;2023-05-19T01:32:18;8.80;99.90
8892;DHT22;4482;54.332;10.118;2023-05-19T01:34:46;8.80;99.90
8892;DHT22;4482;54.332;10.118;2023-05-19T01:37:14;8.80;99.90
8892;DHT22;4482;54.332;10.118;2023-05-19T01:39:41;8.70;99.90
8892;DHT22;4482;54.332;10.118;2023-05-19T01:42:09;8.70;99.90
8892;DHT22;4482;54.332;10.118;2023-05-19T01:44:36;8.60;99.90
8892;DHT22;4482;54.332;10.118;2023-05-19T01:47:03;8.50;99.90
8892;DHT22;4482;54.332;10.118;2023-05-19T01:49:31;8.40;99.90
8892;DHT22;4482;54.332;10.118;2023-05-19T01:51:58;8.30;99.90
8892;DHT22;4482;54.332;10.118;2023-05-19T01:54:24;8.20;99.90
8892;DHT22;4482;54.332;10.118;2023-05-19T01:56:51;8.20;99.90
8892;DHT22;4482;54.332;10.118;2023-05-19T01:59:26;8.20;99.90
8892;DHT22;4482;54.332;10.118;2023-05-19T02:01:59;8.20;99.90
8892;DHT22;4482;54.332;10.118;2023-05-19T02:04:28;8.20;99.90
8892;DHT22;4482;54.332;10.118;2023-05-19T02:07:00;8.20;99.90
8892;DHT22;4482;54.332;10.118;2023-05-19T02:09:29;8.10;99.90
8892;DHT22;4482;54.332;10.118;2023-05-19T02:12:05;8.10;99.90
8892;DHT22;4482;54.332;10.118;2023-05-19T02:14:44;8.10;99.90
8892;DHT22;4482;54.332;10.118;2023-05-19T02:17:13;8.10;99.90
8892;DHT22;4482;54.332;10.118;2023-05-19T02:19:41;8.00;99.90
8892;DHT22;4482;54.332;10.118;2023-05-19T02:22:09;8.00;99.90
8892;DHT22;4482;54.332;10.118;2023-05-19T02:24:36;8.00;99.90
8892;DHT22;4482;54.332;10.118;2023-05-19T02:27:04;7.90;99.90
8892;DHT22;4482;54.332;10.118;2023-05-19T02:29:30;8.00;99.90
8892;DHT22;4482;54.332;10.118;2023-05-19T02:31:57;8.00;99.90
8892;DHT22;4482;54.332;10.118;2023-05-19T02:34:24;8.00;99.90
8892;DHT22;4482;54.332;10.118;2023-05-19T02:36:51;8.10;99.90
8892;DHT22;4482;54.332;10.118;2023-05-19T02:39:19;8.10;99.90
8892;DHT22;4482;54.332;10.118;2023-05-19T02:41:46;8.00;99.90
8892;DHT22;4482;54.332;10.118;2023-05-19T02:44:12;8.00;99.90
8892;DHT22;4482;54.332;10.118;2023-05-19T02:46:39;8.00;99.90
8892;DHT22;4482;54.332;10.118;2023-05-19T02:49:06;8.00;99.90
8892;DHT22;4482;54.332;10.118;2023-05-19T02:51:33;8.00;99.90
8892;DHT22;4482;54.332;10.118;2023-05-19T02:53:59;8.00;99.90
8892;DHT22;4482;54.332;10.118;2023-05-19T02:56:27;8.00;99.90
8892;DHT22;4482;54.332;10.118;2023-05-19T02:58:54;8.10;99.90
8892;DHT22;4482;54.332;10.118;2023-05-19T03:01:21;8.10;99.90
8892;DHT22;4482;54.332;10.118;2023-05-19T03:03:47;8.10;99.90
8892;DHT22;4482;54.332;10.118;2023-05-19T03:06:14;8.10;99.90
8892;DHT22;4482;54.332;10.118;2023-05-19T03:08:42;8.10;99.90
8892;DHT22;4482;54.332;10.118;2023-05-19T03:11:10;8.00;99.90
8892;DHT22;4482;54.332;10.118;2023-05-19T03:13:38;8.00;99.90
8892;DHT22;4482;54.332;10.118;2023-05-19T03:16:05;8.00;99.90
8892;DHT22;4482;54.332;10.118;2023-05-19T03:18:32;8.10;99.90
8892;DHT22;4482;54.332;10.118;2023-05-19T03:20:59;8.10;99.90
8892;DHT22;4482;54.332;10.118;2023-05-19T03:23:25;8.10;99.90
8892;DHT22;4482;54.332;10.118;2023-05-19T03:25:52;8.10;99.90
8892;DHT22;4482;54.332;10.118;2023-05-19T03:28:20;8.20;99.90
8892;DHT22;4482;54.332;10.118;2023-05-19T03:30:48;8.20;99.90
8892;DHT22;4482;54.332;10.118;2023-05-19T03:33:15;8.30;99.90
8892;DHT22;4482;54.332;10.118;2023-05-19T03:35:42;8.40;99.90
8892;DHT22;4482;54.332;10.118;2023-05-19T03:38:09;8.40;99.90
8892;DHT22;4482;54.332;10.118;2023-05-19T03:40:36;8.40;99.90
8892;DHT22;4482;54.332;10.118;2023-05-19T03:43:02;8.50;99.90
8892;DHT22;4482;54.332;10.118;2023-05-19T03:45:29;8.60;99.90
8892;DHT22;4482;54.332;10.118;2023-05-19T03:47:57;8.60;99.90
8892;DHT22;4482;54.332;10.118;2023-05-19T03:50:24;8.70;99.90
8892;DHT22;4482;54.332;10.118;2023-05-19T03:52:51;8.70;99.90
8892;DHT22;4482;54.332;10.118;2023-05-19T03:55:18;8.80;99.90
8892;DHT22;4482;54.332;10.118;2023-05-19T03:57:45;8.80;99.90
8892;DHT22;4482;54.332;10.118;2023-05-19T04:00:13;8.90;99.90
8892;DHT22;4482;54.332;10.118;2023-05-19T04:02:40;9.00;99.90
8892;DHT22;4482;54.332;10.118;2023-05-19T04:05:09;9.10;99.90
8892;DHT22;4482;54.332;10.118;2023-05-19T04:07:35;9.10;99.90
8892;DHT22;4482;54.332;10.118;2023-05-19T04:10:03;9.20;99.90
8892;DHT22;4482;54.332;10.118;2023-05-19T04:12:30;9.30;99.90
8892;DHT22;4482;54.332;10.118;2023-05-19T04:14:57;9.30;99.90
8892;DHT22;4482;54.332;10.118;2023-05-19T04:17:23;9.40;99.90
8892;DHT22;4482;54.332;10.118;2023-05-19T04:19:51;9.30;99.90
8892;DHT22;4482;54.332;10.118;2023-05-19T04:22:19;9.30;99.90
8892;DHT22;4482;54.332;10.118;2023-05-19T04:24:46;9.30;99.90
8892;DHT22;4482;54.332;10.118;2023-05-19T04:27:13;9.40;99.90
8892;DHT22;4482;54.332;10.118;2023-05-19T04:29:40;9.40;99.90
8892;DHT22;4482;54.332;10.118;2023-05-19T04:32:07;9.40;99.90
8892;DHT22;4482;54.332;10.118;2023-05-19T04:34:35;9.40;99.90
8892;DHT22;4482;54.332;10.118;2023-05-19T04:37:04;9.50;99.90
8892;DHT22;4482;54.332;10.118;2023-05-19T04:39:32;9.50;99.90
8892;DHT22;4482;54.332;10.118;2023-05-19T04:41:59;9.50;99.90
8892;DHT22;4482;54.332;10.118;2023-05-19T04:44:26;9.60;99.90
8892;DHT22;4482;54.332;10.118;2023-05-19T04:46:54;9.60;99.90
8892;DHT22;4482;54.332;10.118;2023-05-19T04:49:22;9.60;99.90
8892;DHT22;4482;54.332;10.118;2023-05-19T04:51:49;9.60;99.90
8892;DHT22;4482;54.332;10.118;2023-05-19T04:54:17;9.60;99.90
8892;DHT22;4482;54.332;10.118;2023-05-19T04:56:45;9.60;99.90
8892;DHT22;4482;54.332;10.118;2023-05-19T04:59:11;9.70;99.90
8892;DHT22;4482;54.332;10.118;2023-05-19T05:01:38;9.70;99.90
8892;DHT22;4482;54.332;10.118;2023-05-19T05:04:05;9.70;99.90
8892;DHT22;4482;54.332;10.118;2023-05-19T05:06:32;9.80;99.90
8892;DHT22;4482;54.332;10.118;2023-05-19T05:08:58;9.80;99.90
8892;DHT22;4482;54.332;10.118;2023-05-19T05:11:25;9.80;99.90
8892;DHT22;4482;54.332;10.118;2023-05-19T05:13:54;9.90;99.90
8892;DHT22;4482;54.332;10.118;2023-05-19T05:16:22;9.90;99.90
8892;DHT22;4482;54.332;10.118;2023-05-19T05:18:49;10.00;99.90
8892;DHT22;4482;54.332;10.118;2023-05-19T05:21:16;10.00;99.90
8892;DHT22;4482;54.332;10.118;2023-05-19T05:23:42;10.10;99.90
8892;DHT22;4482;54.332;10.118;2023-05-19T05:26:12;10.10;99.90
8892;DHT22;4482;54.332;10.118;2023-05-19T05:28:42;10.20;99.90
8892;DHT22;4482;54.332;10.118;2023-05-19T05:31:10;10.30;99.90
8892;DHT22;4482;54.332;10.118;2023-05-19T05:33:37;10.50;99.90
8892;DHT22;4482;54.332;10.118;2023-05-19T05:36:03;10.70;99.90
8892;DHT22;4482;54.332;10.118;2023-05-19T05:38:30;10.90;99.90
8892;DHT22;4482;54.332;10.118;2023-05-19T05:40:57;11.00;99.90
8892;DHT22;4482;54.332;10.118;2023-05-19T05:43:23;11.00;99.90
8892;DHT22;4482;54.332;10.118;2023-05-19T05:45:50;11.20;99.90
8892;DHT22;4482;54.332;10.118;2023-05-19T05:48:18;11.30;99.90
8892;DHT22;4482;54.332;10.118;2023-05-19T05:50:45;11.30;99.90
8892;DHT22;4482;54.332;10.118;2023-05-19T05:53:13;11.20;99.90
8892;DHT22;4482;54.332;10.118;2023-05-19T05:55:43;11.20;99.90
8892;DHT22;4482;54.332;10.118;2023-05-19T05:58:10;11.40;99.90
8892;DHT22;4482;54.332;10.118;2023-05-19T06:00:36;11.40;99.90
8892;DHT22;4482;54.332;10.118;2023-05-19T06:03:03;11.60;99.90
8892;DHT22;4482;54.332;10.118;2023-05-19T06:05:31;11.60;99.90
8892;DHT22;4482;54.332;10.118;2023-05-19T06:07:57;11.80;99.90
8892;DHT22;4482;54.332;10.118;2023-05-19T06:10:24;11.90;99.90
8892;DHT22;4482;54.332;10.118;2023-05-19T06:12:51;12.20;99.90
8892;DHT22;4482;54.332;10.118;2023-05-19T06:15:17;12.50;99.90
8892;DHT22;4482;54.332;10.118;2023-05-19T06:17:44;12.80;99.90
8892;DHT22;4482;54.332;10.118;2023-05-19T06:20:11;13.00;99.90
8892;DHT22;4482;54.332;10.118;2023-05-19T06:22:39;13.20;99.90
8892;DHT22;4482;54.332;10.118;2023-05-19T06:25:06;13.30;99.90
8892;DHT22;4482;54.332;10.118;2023-05-19T06:27:34;13.20;99.90
8892;DHT22;4482;54.332;10.118;2023-05-19T06:30:00;13.10;99.90
8892;DHT22;4482;54.332;10.118;2023-05-19T06:32:27;13.10;99.90
8892;DHT22;4482;54.332;10.118;2023-05-19T06:34:54;13.10;99.90
8892;DHT22;4482;54.332;10.118;2023-05-19T06:37:21;13.00;99.90
8892;DHT22;4482;54.332;10.118;2023-05-19T06:39:50;12.90;99.90
8892;DHT22;4482;54.332;10.118;2023-05-19T06:42:17;13.00;99.90
8892;DHT22;4482;54.332;10.118;2023-05-19T06:44:46;13.00;99.90
8892;DHT22;4482;54.332;10.118;2023-05-19T06:47:13;13.10;99.90
8892;DHT22;4482;54.332;10.118;2023-05-19T06:49:39;13.40;99.90
8892;DHT22;4482;54.332;10.118;2023-05-19T06:52:06;13.70;99.90
8892;DHT22;4482;54.332;10.118;2023-05-19T06:54:33;13.90;99.90
8892;DHT22;4482;54.332;10.118;2023-05-19T06:57:01;13.80;99.90
8892;DHT22;4482;54.332;10.118;2023-05-19T06:59:28;13.80;99.90
8892;DHT22;4482;54.332;10.118;2023-05-19T07:01:54;13.60;99.90
8892;DHT22;4482;54.332;10.118;2023-05-19T07:04:21;13.40;99.90
8892;DHT22;4482;54.332;10.118;2023-05-19T07:06:48;13.40;99.90
8892;DHT22;4482;54.332;10.118;2023-05-19T07:09:15;13.40;99.90
8892;DHT22;4482;54.332;10.118;2023-05-19T07:11:41;13.40;99.90
8892;DHT22;4482;54.332;10.118;2023-05-19T07:14:09;13.50;99.90
8892;DHT22;4482;54.332;10.118;2023-05-19T07:16:36;13.60;99.90
8892;DHT22;4482;54.332;10.118;2023-05-19T07:19:02;13.80;99.90
8892;DHT22;4482;54.332;10.118;2023-05-19T07:21:29;14.00;99.90
8892;DHT22;4482;54.332;10.118;2023-05-19T07:23:56;14.10;99.90
8892;DHT22;4482;54.332;10.118;2023-05-19T07:26:22;14.40;99.90
8892;DHT22;4482;54.332;10.118;2023-05-19T07:28:49;14.80;99.90
8892;DHT22;4482;54.332;10.118;2023-05-19T07:31:17;14.80;99.90
8892;DHT22;4482;54.332;10.118;2023-05-19T07:33:44;14.90;99.90
8892;DHT22;4482;54.332;10.118;2023-05-19T07:36:10;15.00;99.90
8892;DHT22;4482;54.332;10.118;2023-05-19T07:38:37;15.10;99.90
8892;DHT22;4482;54.332;10.118;2023-05-19T07:41:03;15.40;99.90
8892;DHT22;4482;54.332;10.118;2023-05-19T07:43:30;15.50;99.90
8892;DHT22;4482;54.332;10.118;2023-05-19T07:45:57;15.80;99.90
8892;DHT22;4482;54.332;10.118;2023-05-19T07:48:25;15.90;99.90
8892;DHT22;4482;54.332;10.118;2023-05-19T07:50:51;16.00;99.90
8892;DHT22;4482;54.332;10.118;2023-05-19T07:53:18;16.00;99.90
8892;DHT22;4482;54.332;10.118;2023-05-19T07:55:46;16.00;99.90
8892;DHT22;4482;54.332;10.118;2023-05-19T07:58:13;15.80;99.90
8892;DHT22;4482;54.332;10.118;2023-05-19T08:00:40;16.00;99.90
8892;DHT22;4482;54.332;10.118;2023-05-19T08:03:07;15.90;99.90
8892;DHT22;4482;54.332;10.118;2023-05-19T08:05:35;15.50;99.90
8892;DHT22;4482;54.332;10.118;2023-05-19T08:08:02;15.60;99.90
8892;DHT22;4482;54.332;10.118;2023-05-19T08:10:28;15.70;99.90
8892;DHT22;4482;54.332;10.118;2023-05-19T08:12:55;16.20;99.90
8892;DHT22;4482;54.332;10.118;2023-05-19T08:15:22;16.40;99.90
8892;DHT22;4482;54.332;10.118;2023-05-19T08:17:49;17.00;99.90
8892;DHT22;4482;54.332;10.118;2023-05-19T08:20:16;17.70;99.90
8892;DHT22;4482;54.332;10.118;2023-05-19T08:22:44;18.60;99.90
8892;DHT22;4482;54.332;10.118;2023-05-19T08:25:10;18.80;99.90
8892;DHT22;4482;54.332;10.118;2023-05-19T08:27:38;19.30;99.90
8892;DHT22;4482;54.332;10.118;2023-05-19T08:30:05;20.10;98.10
8892;DHT22;4482;54.332;10.118;2023-05-19T08:32:32;20.30;96.70
8892;DHT22;4482;54.332;10.118;2023-05-19T08:34:59;20.10;94.60
8892;DHT22;4482;54.332;10.118;2023-05-19T08:37:25;19.00;94.60
8892;DHT22;4482;54.332;10.118;2023-05-19T08:39:54;18.40;94.50
8892;DHT22;4482;54.332;10.118;2023-05-19T08:42:20;17.80;94.10
8892;DHT22;4482;54.332;10.118;2023-05-19T08:44:47;17.90;95.10
8892;DHT22;4482;54.332;10.118;2023-05-19T08:47:14;17.60;95.40
8892;DHT22;4482;54.332;10.118;2023-05-19T08:49:42;17.90;95.40
8892;DHT22;4482;54.332;10.118;2023-05-19T08:52:11;18.40;94.50
8892;DHT22;4482;54.332;10.118;2023-05-19T08:54:42;18.30;93.40
8892;DHT22;4482;54.332;10.118;2023-05-19T08:57:12;17.90;93.30
8892;DHT22;4482;54.332;10.118;2023-05-19T08:59:39;17.60;92.50
8892;DHT22;4482;54.332;10.118;2023-05-19T09:02:06;17.60;92.80
8892;DHT22;4482;54.332;10.118;2023-05-19T09:04:34;18.10;93.00
8892;DHT22;4482;54.332;10.118;2023-05-19T09:07:01;18.70;92.10
8892;DHT22;4482;54.332;10.118;2023-05-19T09:09:28;19.10;90.80
8892;DHT22;4482;54.332;10.118;2023-05-19T09:11:55;19.80;87.80
8892;DHT22;4482;54.332;10.118;2023-05-19T09:14:23;20.40;87.30
8892;DHT22;4482;54.332;10.118;2023-05-19T09:16:49;20.60;84.40
8892;DHT22;4482;54.332;10.118;2023-05-19T09:19:17;20.20;85.00
8892;DHT22;4482;54.332;10.118;2023-05-19T09:21:45;19.60;84.00
8892;DHT22;4482;54.332;10.118;2023-05-19T09:24:11;19.50;86.00
8892;DHT22;4482;54.332;10.118;2023-05-19T09:26:38;19.50;85.10
8892;DHT22;4482;54.332;10.118;2023-05-19T09:29:09;19.60;86.00
8892;DHT22;4482;54.332;10.118;2023-05-19T09:31:37;20.10;85.60
8892;DHT22;4482;54.332;10.118;2023-05-19T09:34:10;20.70;84.80
8892;DHT22;4482;54.332;10.118;2023-05-19T09:36:37;21.60;82.00
8892;DHT22;4482;54.332;10.118;2023-05-19T09:39:11;22.70;77.90
8892;DHT22;4482;54.332;10.118;2023-05-19T09:41:37;24.20;73.80
8892;DHT22;4482;54.332;10.118;2023-05-19T09:44:04;24.20;66.70
8892;DHT22;4482;54.332;10.118;2023-05-19T09:46:31;24.60;63.40
8892;DHT22;4482;54.332;10.118;2023-05-19T09:49:07;24.50;57.60
8892;DHT22;4482;54.332;10.118;2023-05-19T09:51:34;23.80;57.00
8892;DHT22;4482;54.332;10.118;2023-05-19T09:54:01;24.50;54.40
8892;DHT22;4482;54.332;10.118;2023-05-19T09:56:30;24.50;47.30
8892;DHT22;4482;54.332;10.118;2023-05-19T09:58:57;24.10;46.00
8892;DHT22;4482;54.332;10.118;2023-05-19T10:01:24;24.10;46.10
8892;DHT22;4482;54.332;10.118;2023-05-19T10:03:51;24.00;44.00
8892;DHT22;4482;54.332;10.118;2023-05-19T10:06:19;23.30;44.50
8892;DHT22;4482;54.332;10.118;2023-05-19T10:08:47;22.40;48.00
8892;DHT22;4482;54.332;10.118;2023-05-19T10:11:14;23.70;49.80
8892;DHT22;4482;54.332;10.118;2023-05-19T10:13:42;24.60;48.30
8892;DHT22;4482;54.332;10.118;2023-05-19T10:16:10;25.30;49.10
8892;DHT22;4482;54.332;10.118;2023-05-19T10:18:37;25.00;46.90
8892;DHT22;4482;54.332;10.118;2023-05-19T10:21:05;24.60;46.80
8892;DHT22;4482;54.332;10.118;2023-05-19T10:23:34;24.70;45.90
8892;DHT22;4482;54.332;10.118;2023-05-19T10:26:00;23.50;47.20
8892;DHT22;4482;54.332;10.118;2023-05-19T10:28:33;22.90;48.20
8892;DHT22;4482;54.332;10.118;2023-05-19T10:31:00;22.90;48.20
8892;DHT22;4482;54.332;10.118;2023-05-19T10:33:29;22.70;46.70
8892;DHT22;4482;54.332;10.118;2023-05-19T10:36:13;21.70;46.80
8892;DHT22;4482;54.332;10.118;2023-05-19T10:38:44;20.70;48.80
8892;DHT22;4482;54.332;10.118;2023-05-19T10:41:15;21.40;50.60
8892;DHT22;4482;54.332;10.118;2023-05-19T10:43:48;22.20;51.50
8892;DHT22;4482;54.332;10.118;2023-05-19T10:46:21;22.30;53.00
8892;DHT22;4482;54.332;10.118;2023-05-19T10:48:48;22.70;53.70
8892;DHT22;4482;54.332;10.118;2023-05-19T10:51:15;23.30;53.10
8892;DHT22;4482;54.332;10.118;2023-05-19T10:53:43;23.50;52.20
8892;DHT22;4482;54.332;10.118;2023-05-19T10:56:11;23.30;52.30
8892;DHT22;4482;54.332;10.118;2023-05-19T10:58:53;22.80;52.40
8892;DHT22;4482;54.332;10.118;2023-05-19T11:01:20;21.80;54.30
8892;DHT22;4482;54.332;10.118;2023-05-19T11:03:49;22.50;54.80
8892;DHT22;4482;54.332;10.118;2023-05-19T11:06:17;23.30;53.80
8892;DHT22;4482;54.332;10.118;2023-05-19T11:08:45;23.70;53.00
8892;DHT22;4482;54.332;10.118;2023-05-19T11:11:13;23.70;52.90
8892;DHT22;4482;54.332;10.118;2023-05-19T11:13:41;23.70;52.50
8892;DHT22;4482;54.332;10.118;2023-05-19T11:16:08;23.60;52.50
8892;DHT22;4482;54.332;10.118;2023-05-19T11:18:35;23.80;52.70
8892;DHT22;4482;54.332;10.118;2023-05-19T11:21:02;23.90;52.00
8892;DHT22;4482;54.332;10.118;2023-05-19T11:23:31;24.00;51.10
8892;DHT22;4482;54.332;10.118;2023-05-19T11:26:00;24.00;51.70
8892;DHT22;4482;54.332;10.118;2023-05-19T11:28:27;23.80;51.90
8892;DHT22;4482;54.332;10.118;2023-05-19T11:30:55;23.70;50.40
8892;DHT22;4482;54.332;10.118;2023-05-19T11:33:23;23.00;49.30
8892;DHT22;4482;54.332;10.118;2023-05-19T11:35:52;23.00;49.20
8892;DHT22;4482;54.332;10.118;2023-05-19T11:38:18;23.10;48.80
8892;DHT22;4482;54.332;10.118;2023-05-19T11:40:47;22.60;49.40
8892;DHT22;4482;54.332;10.118;2023-05-19T11:43:16;22.90;49.00
8892;DHT22;4482;54.332;10.118;2023-05-19T11:45:43;22.80;48.40
8892;DHT22;4482;54.332;10.118;2023-05-19T11:48:10;22.40;45.70
8892;DHT22;4482;54.332;10.118;2023-05-19T11:50:37;22.20;46.20
8892;DHT22;4482;54.332;10.118;2023-05-19T11:53:05;22.00;47.00
8892;DHT22;4482;54.332;10.118;2023-05-19T11:55:32;20.40;47.30
8892;DHT22;4482;54.332;10.118;2023-05-19T11:57:59;18.20;49.90
8892;DHT22;4482;54.332;10.118;2023-05-19T12:00:28;16.90;51.40
8892;DHT22;4482;54.332;10.118;2023-05-19T12:02:55;16.00;53.60
8892;DHT22;4482;54.332;10.118;2023-05-19T12:05:22;15.50;54.60
8892;DHT22;4482;54.332;10.118;2023-05-19T12:07:49;15.00;54.60
8892;DHT22;4482;54.332;10.118;2023-05-19T12:10:16;14.90;56.00
8892;DHT22;4482;54.332;10.118;2023-05-19T12:12:44;14.80;58.00
8892;DHT22;4482;54.332;10.118;2023-05-19T12:15:11;14.80;61.60
8892;DHT22;4482;54.332;10.118;2023-05-19T12:17:39;14.80;64.30
8892;DHT22;4482;54.332;10.118;2023-05-19T12:20:06;14.70;63.20
8892;DHT22;4482;54.332;10.118;2023-05-19T12:22:33;14.80;66.20
8892;DHT22;4482;54.332;10.118;2023-05-19T12:25:00;14.70;69.10
8892;DHT22;4482;54.332;10.118;2023-05-19T12:27:29;14.60;75.40
8892;DHT22;4482;54.332;10.118;2023-05-19T12:29:55;14.50;79.70
8892;DHT22;4482;54.332;10.118;2023-05-19T12:32:22;14.50;77.30
8892;DHT22;4482;54.332;10.118;2023-05-19T12:34:51;14.40;82.00
8892;DHT22;4482;54.332;10.118;2023-05-19T12:37:17;14.40;82.30
8892;DHT22;4482;54.332;10.118;2023-05-19T12:39:44;14.30;87.70
8892;DHT22;4482;54.332;10.118;2023-05-19T12:42:11;14.20;90.70
8892;DHT22;4482;54.332;10.118;2023-05-19T12:44:41;14.20;93.90
8892;DHT22;4482;54.332;10.118;2023-05-19T12:47:07;14.20;94.70
8892;DHT22;4482;54.332;10.118;2023-05-19T12:49:34;14.40;94.30
8892;DHT22;4482;54.332;10.118;2023-05-19T12:52:02;14.40;93.90
8892;DHT22;4482;54.332;10.118;2023-05-19T12:54:31;14.30;94.50
8892;DHT22;4482;54.332;10.118;2023-05-19T12:56:58;14.20;94.90
8892;DHT22;4482;54.332;10.118;2023-05-19T12:59:25;14.20;95.60
8892;DHT22;4482;54.332;10.118;2023-05-19T13:01:55;14.20;95.70
8892;DHT22;4482;54.332;10.118;2023-05-19T13:04:21;14.30;95.00
8892;DHT22;4482;54.332;10.118;2023-05-19T13:06:48;14.30;96.20
8892;DHT22;4482;54.332;10.118;2023-05-19T13:09:16;14.30;96.10
8892;DHT22;4482;54.332;10.118;2023-05-19T13:11:43;14.30;95.60
8892;DHT22;4482;54.332;10.118;2023-05-19T13:14:10;14.20;96.00
8892;DHT22;4482;54.332;10.118;2023-05-19T13:16:37;14.20;95.90
8892;DHT22;4482;54.332;10.118;2023-05-19T13:19:04;14.20;96.20
8892;DHT22;4482;54.332;10.118;2023-05-19T13:21:31;14.40;96.10
8892;DHT22;4482;54.332;10.118;2023-05-19T13:23:57;14.40;95.90
8892;DHT22;4482;54.332;10.118;2023-05-19T13:26:25;14.30;95.20
8892;DHT22;4482;54.332;10.118;2023-05-19T13:28:52;14.30;94.70
8892;DHT22;4482;54.332;10.118;2023-05-19T13:31:19;14.30;95.20
8892;DHT22;4482;54.332;10.118;2023-05-19T13:33:45;14.30;96.00
8892;DHT22;4482;54.332;10.118;2023-05-19T13:36:12;14.30;96.30
8892;DHT22;4482;54.332;10.118;2023-05-19T13:38:39;14.20;97.20
8892;DHT22;4482;54.332;10.118;2023-05-19T13:41:06;14.20;95.60
8892;DHT22;4482;54.332;10.118;2023-05-19T13:43:35;14.20;94.60
8892;DHT22;4482;54.332;10.118;2023-05-19T13:46:01;14.10;94.20
8892;DHT22;4482;54.332;10.118;2023-05-19T13:48:28;14.10;94.20
8892;DHT22;4482;54.332;10.118;2023-05-19T13:50:55;14.10;94.60
8892;DHT22;4482;54.332;10.118;2023-05-19T13:53:21;14.10;94.60
8892;DHT22;4482;54.332;10.118;2023-05-19T13:55:48;14.20;96.20
8892;DHT22;4482;54.332;10.118;2023-05-19T13:58:17;14.20;96.70
8892;DHT22;4482;54.332;10.118;2023-05-19T14:00:45;14.30;98.40
8892;DHT22;4482;54.332;10.118;2023-05-19T14:03:11;14.40;98.80
8892;DHT22;4482;54.332;10.118;2023-05-19T14:05:40;14.40;99.90
8892;DHT22;4482;54.332;10.118;2023-05-19T14:08:06;14.40;99.90
8892;DHT22;4482;54.332;10.118;2023-05-19T14:10:35;14.50;99.90
8892;DHT22;4482;54.332;10.118;2023-05-19T14:13:02;14.40;99.90
8892;DHT22;4482;54.332;10.118;2023-05-19T14:15:28;14.30;99.90
8892;DHT22;4482;54.332;10.118;2023-05-19T14:17:59;14.20;99.90
8892;DHT22;4482;54.332;10.118;2023-05-19T14:20:26;14.20;99.90
8892;DHT22;4482;54.332;10.118;2023-05-19T14:22:52;14.20;99.90
8892;DHT22;4482;54.332;10.118;2023-05-19T14:25:19;14.20;99.90
8892;DHT22;4482;54.332;10.118;2023-05-19T14:27:46;14.30;99.90
8892;DHT22;4482;54.332;10.118;2023-05-19T14:30:13;14.20;99.90
8892;DHT22;4482;54.332;10.118;2023-05-19T14:32:39;14.20;99.90
8892;DHT22;4482;54.332;10.118;2023-05-19T14:35:08;14.20;99.90
8892;DHT22;4482;54.332;10.118;2023-05-19T14:37:34;14.30;99.90
8892;DHT22;4482;54.332;10.118;2023-05-19T14:40:01;14.30;99.90
8892;DHT22;4482;54.332;10.118;2023-05-19T14:42:28;14.30;99.90
8892;DHT22;4482;54.332;10.118;2023-05-19T14:44:55;14.20;99.90
8892;DHT22;4482;54.332;10.118;2023-05-19T14:47:22;14.40;99.90
8892;DHT22;4482;54.332;10.118;2023-05-19T14:49:48;14.30;99.90
8892;DHT22;4482;54.332;10.118;2023-05-19T14:52:16;14.30;99.90
8892;DHT22;4482;54.332;10.118;2023-05-19T14:54:43;14.30;99.90
8892;DHT22;4482;54.332;10.118;2023-05-19T14:57:10;14.40;99.90
8892;DHT22;4482;54.332;10.118;2023-05-19T14:59:37;14.50;99.90
8892;DHT22;4482;54.332;10.118;2023-05-19T15:02:03;14.40;99.90
8892;DHT22;4482;54.332;10.118;2023-05-19T15:04:30;14.40;99.90
8892;DHT22;4482;54.332;10.118;2023-05-19T15:06:57;14.40;99.90
8892;DHT22;4482;54.332;10.118;2023-05-19T15:09:25;14.50;99.90
8892;DHT22;4482;54.332;10.118;2023-05-19T15:11:51;14.50;99.90
8892;DHT22;4482;54.332;10.118;2023-05-19T15:14:18;14.60;99.90
8892;DHT22;4482;54.332;10.118;2023-05-19T15:16:45;14.60;99.90
8892;DHT22;4482;54.332;10.118;2023-05-19T15:19:11;14.70;99.90
8892;DHT22;4482;54.332;10.118;2023-05-19T15:21:38;14.70;99.90
8892;DHT22;4482;54.332;10.118;2023-05-19T15:24:05;14.60;99.90
8892;DHT22;4482;54.332;10.118;2023-05-19T15:26:33;14.60;99.90
8892;DHT22;4482;54.332;10.118;2023-05-19T15:28:59;14.50;99.90
8892;DHT22;4482;54.332;10.118;2023-05-19T15:31:26;14.40;99.90
8892;DHT22;4482;54.332;10.118;2023-05-19T15:33:53;14.40;99.90
8892;DHT22;4482;54.332;10.118;2023-05-19T15:36:19;14.40;99.90
8892;DHT22;4482;54.332;10.118;2023-05-19T15:38:46;14.40;99.90
8892;DHT22;4482;54.332;10.118;2023-05-19T15:41:15;14.40;99.90
8892;DHT22;4482;54.332;10.118;2023-05-19T15:43:43;14.50;99.90
8892;DHT22;4482;54.332;10.118;2023-05-19T15:46:11;14.40;99.90
8892;DHT22;4482;54.332;10.118;2023-05-19T15:48:40;14.40;99.90
8892;DHT22;4482;54.332;10.118;2023-05-19T15:51:06;14.40;99.90
8892;DHT22;4482;54.332;10.118;2023-05-19T15:53:33;14.40;99.90